createdAt,value
2023-04-18T00:00:46.447Z,100205.91
2023-04-18T00:03:16.482Z,100201.44
2023-04-18T00:05:48.342Z,100215.53
2023-04-18T00:08:15.852Z,100212.53
2023-04-18T00:10:42.846Z,100220.56
2023-04-18T00:13:10.370Z,100210.97
2023-04-18T00:15:37.350Z,100211.28
2023-04-18T00:18:06.380Z,100217.38
2023-04-18T00:20:33.618Z,100219.34
2023-04-18T00:23:00.988Z,100217.81
2023-04-18T00:25:28.208Z,100219.63
2023-04-18T00:27:55.200Z,100210.41
2023-04-18T00:30:22.292Z,100219.31
2023-04-18T00:32:49.456Z,100213.25
2023-04-18T00:35:16.481Z,100216.41
2023-04-18T00:37:43.698Z,100216.84
2023-04-18T00:40:11.252Z,100209.50
2023-04-18T00:42:38.358Z,100211.25
2023-04-18T00:45:06.094Z,100207.75
2023-04-18T00:47:33.235Z,100201.19
2023-04-18T00:50:00.589Z,100214.22
2023-04-18T00:52:28.051Z,100201.12
2023-04-18T00:54:55.791Z,100215.59
2023-04-18T00:57:22.910Z,100207.97
2023-04-18T00:59:50.480Z,100198.88
2023-04-18T01:02:17.773Z,100205.06
2023-04-18T01:04:44.922Z,100208.38
2023-04-18T01:07:12.125Z,100204.03
2023-04-18T01:09:39.942Z,100209.72
2023-04-18T01:12:07.031Z,100204.25
2023-04-18T01:14:33.960Z,100204.38
2023-04-18T01:17:01.796Z,100201.66
2023-04-18T01:19:28.920Z,100202.38
2023-04-18T01:21:55.971Z,100208.22
2023-04-18T01:24:24.811Z,100203.97
2023-04-18T01:26:51.823Z,100203.06
2023-04-18T01:29:18.760Z,100200.06
2023-04-18T01:31:46.217Z,100199.87
2023-04-18T01:34:13.619Z,100205.97
2023-04-18T01:36:41.338Z,100205.75
2023-04-18T01:39:08.498Z,100196.97
2023-04-18T01:41:35.590Z,100211.28
2023-04-18T01:44:02.789Z,100208.41
2023-04-18T01:46:29.969Z,100210.47
2023-04-18T01:48:57.886Z,100207.09
2023-04-18T01:51:25.293Z,100202.09
2023-04-18T01:53:52.290Z,100202.63
2023-04-18T01:56:19.373Z,100206.34
2023-04-18T01:58:46.373Z,100214.16
2023-04-18T02:01:13.560Z,100208.22
2023-04-18T02:03:41.009Z,100205.00
2023-04-18T02:06:08.330Z,100206.00
2023-04-18T02:08:36.221Z,100210.56
2023-04-18T02:11:03.764Z,100217.66
2023-04-18T02:13:31.272Z,100210.37
2023-04-18T02:15:58.284Z,100216.06
2023-04-18T02:18:26.132Z,100208.44
2023-04-18T02:20:53.172Z,100208.03
2023-04-18T02:23:20.130Z,100214.69
2023-04-18T02:25:47.120Z,100223.37
2023-04-18T02:28:14.075Z,100220.47
2023-04-18T02:30:41.049Z,100224.56
2023-04-18T02:33:08.180Z,100224.69
2023-04-18T02:35:37.756Z,100228.50
2023-04-18T02:38:04.785Z,100223.37
2023-04-18T02:40:31.756Z,100225.59
2023-04-18T02:42:58.799Z,100229.09
2023-04-18T02:45:25.794Z,100234.28
2023-04-18T02:47:55.871Z,100227.28
2023-04-18T02:50:24.153Z,100229.50
2023-04-18T02:52:51.221Z,100228.13
2023-04-18T02:55:18.271Z,100225.38
2023-04-18T02:57:45.230Z,100235.31
2023-04-18T03:00:13.767Z,100222.72
2023-04-18T03:02:41.165Z,100223.72
2023-04-18T03:05:08.541Z,100224.53
2023-04-18T03:07:35.727Z,100225.72
2023-04-18T03:10:02.732Z,100222.97
2023-04-18T03:12:29.732Z,100233.22
2023-04-18T03:14:56.756Z,100231.34
2023-04-18T03:17:23.901Z,100231.09
2023-04-18T03:19:50.946Z,100227.47
2023-04-18T03:22:18.130Z,100236.84
2023-04-18T03:24:45.154Z,100233.44
2023-04-18T03:27:13.607Z,100235.53
2023-04-18T03:29:40.681Z,100237.53
2023-04-18T03:32:07.650Z,100237.63
2023-04-18T03:34:34.633Z,100237.13
2023-04-18T03:37:01.710Z,100237.31
2023-04-18T03:39:28.698Z,100239.94
2023-04-18T03:41:55.762Z,100243.22
2023-04-18T03:44:22.758Z,100236.44
2023-04-18T03:46:49.793Z,100236.44
2023-04-18T03:49:16.748Z,100236.31
2023-04-18T03:51:48.087Z,100233.00
2023-04-18T03:54:17.961Z,100239.03
2023-04-18T03:56:44.988Z,100237.31
2023-04-18T03:59:12.295Z,100236.31
2023-04-18T04:01:39.451Z,100243.38
2023-04-18T04:04:06.854Z,100243.94
2023-04-18T04:06:33.940Z,100245.22
2023-04-18T04:09:01.294Z,100247.47
2023-04-18T04:11:28.403Z,100258.38
2023-04-18T04:13:55.521Z,100263.56
2023-04-18T04:16:22.751Z,100263.69
2023-04-18T04:18:49.778Z,100259.16
2023-04-18T04:21:18.425Z,100254.09
2023-04-18T04:23:46.508Z,100267.94
2023-04-18T04:26:15.267Z,100271.31
2023-04-18T04:28:43.228Z,100274.41
2023-04-18T04:31:10.684Z,100269.31
2023-04-18T04:33:39.251Z,100270.78
2023-04-18T04:36:09.386Z,100269.03
2023-04-18T04:38:38.595Z,100268.63
2023-04-18T04:41:08.017Z,100272.91
2023-04-18T04:43:35.101Z,100268.00
2023-04-18T04:46:04.654Z,100274.91
2023-04-18T04:48:31.755Z,100280.41
2023-04-18T04:51:00.932Z,100274.16
2023-04-18T04:53:32.482Z,100279.78
2023-04-18T04:55:59.613Z,100281.34
2023-04-18T04:58:26.803Z,100281.28
2023-04-18T05:00:54.057Z,100282.97
2023-04-18T05:03:21.276Z,100286.75
2023-04-18T05:05:48.856Z,100287.63
2023-04-18T05:08:15.973Z,100287.97
2023-04-18T05:10:43.582Z,100287.28
2023-04-18T05:13:10.625Z,100276.75
2023-04-18T05:15:37.734Z,100287.31
2023-04-18T05:18:05.135Z,100288.22
2023-04-18T05:20:32.284Z,100287.56
2023-04-18T05:22:59.357Z,100293.19
2023-04-18T05:25:27.184Z,100287.28
2023-04-18T05:27:54.171Z,100296.16
2023-04-18T05:30:21.514Z,100303.91
2023-04-18T05:32:48.639Z,100311.84
2023-04-18T05:35:15.790Z,100313.41
2023-04-18T05:37:42.834Z,100320.34
2023-04-18T05:40:10.586Z,100315.63
2023-04-18T05:42:37.747Z,100309.28
2023-04-18T05:45:05.179Z,100322.13
2023-04-18T05:47:33.889Z,100323.16
2023-04-18T05:50:01.177Z,100316.00
2023-04-18T05:52:28.225Z,100325.97
2023-04-18T05:54:55.169Z,100330.25
2023-04-18T05:57:22.289Z,100330.12
2023-04-18T05:59:49.269Z,100312.91
2023-04-18T06:02:16.305Z,100327.59
2023-04-18T06:04:43.667Z,100328.03
2023-04-18T06:07:10.998Z,100327.81
2023-04-18T06:09:38.036Z,100332.25
2023-04-18T06:12:05.313Z,100337.34
2023-04-18T06:14:32.581Z,100335.00
2023-04-18T06:16:59.851Z,100340.94
2023-04-18T06:19:26.993Z,100338.69
2023-04-18T06:21:54.183Z,100339.84
2023-04-18T06:24:21.275Z,100339.19
2023-04-18T06:26:48.337Z,100341.72
2023-04-18T06:29:15.591Z,100339.47
2023-04-18T06:31:45.715Z,100343.59
2023-04-18T06:34:13.449Z,100339.03
2023-04-18T06:36:40.710Z,100348.41
2023-04-18T06:39:07.775Z,100348.31
2023-04-18T06:41:35.024Z,100343.44
2023-04-18T06:44:03.406Z,100346.41
2023-04-18T06:46:32.511Z,100358.13
2023-04-18T06:49:00.033Z,100352.97
2023-04-18T06:51:27.729Z,100355.44
2023-04-18T06:53:54.862Z,100360.31
2023-04-18T06:56:22.588Z,100363.22
2023-04-18T06:58:50.453Z,100354.84
2023-04-18T07:01:17.598Z,100358.41
2023-04-18T07:03:44.855Z,100365.75
2023-04-18T07:06:12.094Z,100360.22
2023-04-18T07:08:39.227Z,100370.75
2023-04-18T07:11:07.048Z,100373.06
2023-04-18T07:13:34.087Z,100372.16
2023-04-18T07:16:01.786Z,100367.56
2023-04-18T07:18:37.469Z,100364.44
2023-04-18T07:21:09.147Z,100371.44
2023-04-18T07:23:36.299Z,100366.72
2023-04-18T07:26:03.911Z,100372.87
2023-04-18T07:28:32.575Z,100375.69
2023-04-18T07:30:59.840Z,100372.66
2023-04-18T07:33:27.139Z,100372.28
2023-04-18T07:35:54.240Z,100386.47
2023-04-18T07:38:21.320Z,100389.50
2023-04-18T07:40:57.530Z,100378.00
2023-04-18T07:43:24.815Z,100381.72
2023-04-18T07:45:52.807Z,100382.94
2023-04-18T07:48:22.902Z,100388.50
2023-04-18T07:50:50.026Z,100390.22
2023-04-18T07:53:17.307Z,100388.09
2023-04-18T07:55:44.848Z,100392.19
2023-04-18T07:58:11.958Z,100393.91
2023-04-18T08:00:39.543Z,100393.00
2023-04-18T08:03:11.376Z,100389.75
2023-04-18T08:05:39.909Z,100397.69
2023-04-18T08:08:08.568Z,100402.59
2023-04-18T08:10:36.256Z,100402.50
2023-04-18T08:13:03.736Z,100401.94
2023-04-18T08:15:33.065Z,100402.91
2023-04-18T08:18:01.357Z,100399.03
2023-04-18T08:20:28.489Z,100395.91
2023-04-18T08:25:25.539Z,100397.31
2023-04-18T08:27:52.646Z,100403.84
2023-04-18T08:30:19.898Z,100401.88
2023-04-18T08:32:47.196Z,100405.59
2023-04-18T08:35:14.345Z,100407.72
2023-04-18T08:37:43.527Z,100419.59
2023-04-18T08:40:11.049Z,100417.78
2023-04-18T08:42:39.660Z,100424.41
2023-04-18T08:45:07.342Z,100432.12
2023-04-18T08:47:36.665Z,100421.16
2023-04-18T08:50:05.814Z,100421.66
2023-04-18T08:52:34.492Z,100422.38
2023-04-18T08:55:03.021Z,100422.12
2023-04-18T08:57:31.323Z,100414.38
2023-04-18T09:00:01.025Z,100421.00
2023-04-18T09:02:47.238Z,100418.47
2023-04-18T09:05:19.964Z,100423.19
2023-04-18T09:07:48.609Z,100422.47
2023-04-18T09:10:36.864Z,100426.97
2023-04-18T09:13:04.573Z,100426.53
2023-04-18T09:15:31.714Z,100429.84
2023-04-18T09:18:02.659Z,100419.41
2023-04-18T09:20:42.454Z,100431.50
2023-04-18T09:23:11.670Z,100438.41
2023-04-18T09:25:45.401Z,100438.13
2023-04-18T09:28:33.473Z,100437.31
2023-04-18T09:31:22.882Z,100429.94
2023-04-18T09:33:57.234Z,100433.22
2023-04-18T09:36:28.112Z,100431.72
2023-04-18T09:38:57.089Z,100435.72
2023-04-18T09:41:24.701Z,100432.84
2023-04-18T09:44:11.676Z,100427.09
2023-04-18T09:46:41.384Z,100426.63
2023-04-18T09:49:10.822Z,100421.50
2023-04-18T09:51:40.708Z,100429.47
2023-04-18T09:54:11.345Z,100429.50
2023-04-18T09:56:44.191Z,100428.97
2023-04-18T09:59:12.558Z,100431.62
2023-04-18T10:01:45.284Z,100432.56
2023-04-18T10:04:13.963Z,100430.75
2023-04-18T10:06:42.442Z,100428.59
2023-04-18T10:09:10.551Z,100435.09
2023-04-18T10:11:37.753Z,100437.78
2023-04-18T10:14:12.019Z,100438.34
2023-04-18T10:16:39.966Z,100435.38
2023-04-18T10:19:30.361Z,100437.44
2023-04-18T10:21:59.861Z,100440.19
2023-04-18T10:24:46.204Z,100437.31
2023-04-18T10:27:13.411Z,100447.84
2023-04-18T10:29:51.461Z,100443.00
2023-04-18T10:32:23.792Z,100431.28
2023-04-18T10:34:53.770Z,100434.13
2023-04-18T10:37:20.980Z,100436.34
2023-04-18T10:40:00.481Z,100441.03
2023-04-18T10:42:46.050Z,100435.78
2023-04-18T10:45:24.136Z,100427.28
2023-04-18T10:47:51.700Z,100432.50
2023-04-18T10:50:18.699Z,100435.62
2023-04-18T10:52:45.832Z,100426.81
2023-04-18T10:55:19.248Z,100431.78
2023-04-18T10:57:48.684Z,100428.78
2023-04-18T11:00:18.189Z,100427.88
2023-04-18T11:03:00.626Z,100430.97
2023-04-18T11:05:29.473Z,100428.75
2023-04-18T11:07:56.584Z,100432.75
2023-04-18T11:10:26.992Z,100427.22
2023-04-18T11:12:56.728Z,100427.37
2023-04-18T11:15:24.523Z,100418.41
2023-04-18T11:17:58.333Z,100422.16
2023-04-18T11:20:25.889Z,100427.37
2023-04-18T11:22:56.454Z,100423.87
2023-04-18T11:25:38.082Z,100430.97
2023-04-18T11:28:06.918Z,100428.88
2023-04-18T11:30:39.865Z,100434.34
2023-04-18T11:33:14.251Z,100424.59
2023-04-18T11:35:43.750Z,100417.84
2023-04-18T11:38:13.361Z,100424.28
2023-04-18T11:40:40.458Z,100420.00
2023-04-18T11:43:08.128Z,100427.09
2023-04-18T11:45:35.216Z,100422.19
2023-04-18T11:48:02.879Z,100427.22
2023-04-18T11:50:37.443Z,100425.53
2023-04-18T11:53:04.552Z,100429.75
2023-04-18T11:55:31.727Z,100431.66
2023-04-18T11:58:00.423Z,100428.66
2023-04-18T12:00:34.798Z,100436.66
2023-04-18T12:03:04.935Z,100431.28
2023-04-18T12:05:34.355Z,100429.97
2023-04-18T12:08:07.902Z,100431.94
2023-04-18T12:10:36.405Z,100438.03
2023-04-18T12:13:08.369Z,100445.12
2023-04-18T12:15:39.861Z,100438.13
2023-04-18T12:18:10.364Z,100437.00
2023-04-18T12:20:54.341Z,100431.75
2023-04-18T12:23:36.409Z,100439.63
2023-04-18T12:26:06.552Z,100440.37
2023-04-18T12:28:35.480Z,100447.91
2023-04-18T12:31:03.050Z,100442.84
2023-04-18T12:33:31.212Z,100448.56
2023-04-18T12:35:58.310Z,100444.97
2023-04-18T12:38:25.493Z,100452.91
2023-04-18T12:40:52.716Z,100448.84
2023-04-18T12:43:20.158Z,100438.16
2023-04-18T12:45:47.799Z,100447.16
2023-04-18T12:48:14.978Z,100443.84
2023-04-18T12:50:42.264Z,100439.12
2023-04-18T12:53:09.328Z,100439.41
2023-04-18T12:55:38.676Z,100435.91
2023-04-18T12:58:05.761Z,100438.31
2023-04-18T13:00:33.241Z,100433.16
2023-04-18T13:03:01.417Z,100440.91
2023-04-18T13:05:32.892Z,100440.97
2023-04-18T13:08:12.845Z,100433.63
2023-04-18T13:10:44.011Z,100433.78
2023-04-18T13:13:11.213Z,100435.25
2023-04-18T13:15:42.005Z,100433.25
2023-04-18T13:18:13.100Z,100440.47
2023-04-18T13:20:41.687Z,100440.22
2023-04-18T13:23:08.848Z,100439.16
2023-04-18T13:25:36.100Z,100442.59
2023-04-18T13:28:03.899Z,100437.09
2023-04-18T13:30:32.048Z,100436.13
2023-04-18T13:32:59.252Z,100437.34
2023-04-18T13:35:26.444Z,100427.31
2023-04-18T13:37:53.573Z,100433.16
2023-04-18T13:40:20.784Z,100428.94
2023-04-18T13:42:48.620Z,100435.72
2023-04-18T13:45:15.937Z,100421.81
2023-04-18T13:47:43.061Z,100438.91
2023-04-18T13:50:10.452Z,100426.63
2023-04-18T13:52:37.515Z,100423.28
2023-04-18T13:55:05.249Z,100425.47
2023-04-18T13:57:34.817Z,100423.59
2023-04-18T14:00:01.935Z,100422.78
2023-04-18T14:02:29.245Z,100430.13
2023-04-18T14:04:58.980Z,100427.13
2023-04-18T14:07:25.943Z,100427.78
2023-04-18T14:09:55.034Z,100424.00
2023-04-18T14:12:22.659Z,100427.44
2023-04-18T14:14:49.732Z,100422.47
2023-04-18T14:17:16.765Z,100420.00
2023-04-18T14:19:43.805Z,100415.75
2023-04-18T14:22:11.163Z,100418.12
2023-04-18T14:24:38.263Z,100418.22
2023-04-18T14:27:05.293Z,100428.94
2023-04-18T14:29:32.408Z,100427.25
2023-04-18T14:31:59.434Z,100420.66
2023-04-18T14:34:26.494Z,100419.41
2023-04-18T14:36:53.496Z,100423.97
2023-04-18T14:39:20.600Z,100419.53
2023-04-18T14:41:47.582Z,100410.09
2023-04-18T14:44:14.640Z,100418.72
2023-04-18T14:46:42.812Z,100421.19
2023-04-18T14:49:09.835Z,100429.56
2023-04-18T14:51:36.823Z,100424.31
2023-04-18T14:54:06.290Z,100433.31
2023-04-18T14:56:33.346Z,100420.28
2023-04-18T14:59:00.310Z,100426.63
2023-04-18T15:01:27.364Z,100423.13
2023-04-18T15:03:54.754Z,100417.59
2023-04-18T15:06:23.260Z,100410.75
2023-04-18T15:08:50.115Z,100417.59
2023-04-18T15:11:17.029Z,100421.28
2023-04-18T15:13:44.721Z,100411.41
2023-04-18T15:16:11.757Z,100427.25
2023-04-18T15:18:38.699Z,100416.28
2023-04-18T15:21:05.666Z,100420.00
2023-04-18T15:23:34.339Z,100416.41
2023-04-18T15:26:01.252Z,100423.78
2023-04-18T15:28:28.343Z,100418.34
2023-04-18T15:30:55.261Z,100421.50
2023-04-18T15:33:24.111Z,100423.41
2023-04-18T15:35:51.116Z,100429.34
2023-04-18T15:38:18.184Z,100436.09
2023-04-18T15:40:45.325Z,100432.59
2023-04-18T15:43:13.962Z,100444.47
2023-04-18T15:45:41.620Z,100439.47
2023-04-18T15:48:08.541Z,100445.03
2023-04-18T15:50:36.243Z,100444.97
2023-04-18T15:53:03.126Z,100444.63
2023-04-18T15:55:30.051Z,100436.94
2023-04-18T15:57:57.129Z,100446.44
2023-04-18T16:00:24.217Z,100446.06
2023-04-18T16:02:51.529Z,100444.03
2023-04-18T16:05:22.281Z,100441.00
2023-04-18T16:07:49.247Z,100446.31
2023-04-18T16:10:16.195Z,100442.59
2023-04-18T16:12:44.560Z,100449.53
2023-04-18T16:15:12.008Z,100446.22
2023-04-18T16:17:39.124Z,100447.50
2023-04-18T16:20:08.586Z,100440.47
2023-04-18T16:22:35.814Z,100446.09
2023-04-18T16:25:04.062Z,100452.91
2023-04-18T16:27:30.970Z,100454.75
2023-04-18T16:29:57.939Z,100459.69
2023-04-18T16:32:26.976Z,100452.19
2023-04-18T16:34:56.051Z,100456.28
2023-04-18T16:37:22.933Z,100450.41
2023-04-18T16:39:49.858Z,100453.31
2023-04-18T16:42:17.170Z,100446.47
2023-04-18T16:44:45.567Z,100449.47
2023-04-18T16:47:12.500Z,100453.28
2023-04-18T16:49:40.302Z,100445.78
2023-04-18T16:52:07.325Z,100445.09
2023-04-18T16:54:34.334Z,100446.00
2023-04-18T16:57:03.943Z,100454.28
2023-04-18T16:59:33.125Z,100455.34
2023-04-18T17:02:00.234Z,100452.28
2023-04-18T17:04:27.646Z,100463.72
2023-04-18T17:06:54.836Z,100460.16
2023-04-18T17:09:21.763Z,100465.88
2023-04-18T17:11:49.631Z,100474.94
2023-04-18T17:14:17.638Z,100486.91
2023-04-18T17:16:46.718Z,100485.16
2023-04-18T17:19:13.980Z,100503.56
2023-04-18T17:21:43.350Z,100495.13
2023-04-18T17:24:10.284Z,100503.91
2023-04-18T17:26:39.170Z,100501.97
2023-04-18T17:29:06.159Z,100507.50
2023-04-18T17:31:33.410Z,100501.03
2023-04-18T17:34:02.984Z,100499.75
2023-04-18T17:36:30.113Z,100500.78
2023-04-18T17:38:58.444Z,100507.31
2023-04-18T17:41:27.600Z,100510.19
2023-04-18T17:43:54.492Z,100520.78
2023-04-18T17:46:23.522Z,100529.91
2023-04-18T17:48:50.431Z,100531.22
2023-04-18T17:51:21.498Z,100532.63
2023-04-18T17:53:48.442Z,100539.22
2023-04-18T17:56:15.377Z,100532.69
2023-04-18T17:58:44.495Z,100530.34
2023-04-18T18:01:15.695Z,100535.19
2023-04-18T18:03:44.858Z,100535.47
2023-04-18T18:06:13.166Z,100543.41
2023-04-18T18:08:40.305Z,100539.94
2023-04-18T18:11:07.861Z,100545.22
2023-04-18T18:13:35.886Z,100552.75
2023-04-18T18:16:03.693Z,100559.81
2023-04-18T18:18:31.562Z,100557.31
2023-04-18T18:20:59.137Z,100569.50
2023-04-18T18:23:28.129Z,100566.78
2023-04-18T18:25:55.054Z,100576.09
2023-04-18T18:28:23.991Z,100571.56
2023-04-18T18:30:51.001Z,100570.81
2023-04-18T18:33:20.068Z,100580.66
2023-04-18T18:35:46.953Z,100579.37
2023-04-18T18:38:16.298Z,100576.75
2023-04-18T18:40:43.315Z,100579.81
2023-04-18T18:43:10.270Z,100579.53
2023-04-18T18:45:40.544Z,100576.16
2023-04-18T18:48:07.572Z,100565.72
2023-04-18T18:50:36.752Z,100562.25
2023-04-18T18:53:03.715Z,100562.78
2023-04-18T18:55:32.797Z,100572.37
2023-04-18T18:57:59.704Z,100563.03
2023-04-18T19:00:26.879Z,100564.41
2023-04-18T19:02:56.181Z,100577.44
2023-04-18T19:05:23.486Z,100587.62
2023-04-18T19:07:53.830Z,100581.22
2023-04-18T19:10:41.953Z,100592.63
2023-04-18T19:13:10.575Z,100586.00
2023-04-18T19:15:37.531Z,100584.56
2023-04-18T19:18:04.686Z,100594.00
2023-04-18T19:20:33.031Z,100594.31
2023-04-18T19:22:59.901Z,100601.44
2023-04-18T19:25:27.832Z,100609.06
2023-04-18T19:27:54.757Z,100606.94
2023-04-18T19:30:21.702Z,100599.06
2023-04-18T19:32:50.682Z,100600.97
2023-04-18T19:35:17.715Z,100607.28
2023-04-18T19:37:46.609Z,100606.28
2023-04-18T19:40:14.437Z,100609.91
2023-04-18T19:42:41.341Z,100617.22
2023-04-18T19:45:10.720Z,100614.28
2023-04-18T19:47:38.206Z,100622.44
2023-04-18T19:50:07.938Z,100626.63
2023-04-18T19:52:34.834Z,100632.00
2023-04-18T19:55:03.884Z,100619.94
2023-04-18T19:57:31.040Z,100618.31
2023-04-18T19:59:57.890Z,100611.09
2023-04-18T20:02:26.926Z,100610.09
2023-04-18T20:04:54.054Z,100608.22
2023-04-18T20:07:24.219Z,100609.66
2023-04-18T20:09:53.314Z,100597.19
2023-04-18T20:12:22.236Z,100580.81
2023-04-18T20:14:49.239Z,100561.09
2023-04-18T20:17:16.251Z,100572.47
2023-04-18T20:19:45.347Z,100566.28
2023-04-18T20:22:12.271Z,100578.38
2023-04-18T20:24:40.872Z,100567.38
2023-04-18T20:27:08.240Z,100567.94
2023-04-18T20:29:37.200Z,100583.84
2023-04-18T20:32:04.268Z,100585.63
2023-04-18T20:34:31.713Z,100608.22
2023-04-18T20:37:01.923Z,100607.41
2023-04-18T20:39:28.894Z,100619.13
2023-04-18T20:41:57.881Z,100616.56
2023-04-18T20:44:27.085Z,100613.81
2023-04-18T20:46:56.064Z,100618.28
2023-04-18T20:49:23.082Z,100613.69
2023-04-18T20:51:50.071Z,100601.41
2023-04-18T20:54:18.292Z,100598.88
2023-04-18T20:56:45.220Z,100588.22
2023-04-18T20:59:14.127Z,100573.47
2023-04-18T21:01:41.485Z,100568.06
2023-04-18T21:04:10.567Z,100563.69
2023-04-18T21:06:37.634Z,100567.25
2023-04-18T21:09:04.588Z,100554.06
2023-04-18T21:11:33.335Z,100548.63
2023-04-18T21:14:00.368Z,100557.66
2023-04-18T21:16:27.360Z,100570.09
2023-04-18T21:18:57.359Z,100577.50
2023-04-18T21:21:26.637Z,100556.81
2023-04-18T21:23:53.536Z,100561.22
2023-04-18T21:26:20.565Z,100551.41
2023-04-18T21:28:54.221Z,100547.00
2023-04-18T21:31:21.215Z,100539.69
2023-04-18T21:33:48.804Z,100521.25
2023-04-18T21:36:15.767Z,100521.28
2023-04-18T21:38:42.683Z,100522.69
2023-04-18T21:41:09.602Z,100511.34
2023-04-18T21:43:36.534Z,100506.50
2023-04-18T21:46:03.478Z,100478.47
2023-04-18T21:48:30.392Z,100481.91
2023-04-18T21:50:57.318Z,100523.44
2023-04-18T21:53:24.299Z,100513.16
2023-04-18T21:55:51.299Z,100499.78
2023-04-18T21:58:18.216Z,100511.91
2023-04-18T22:00:45.199Z,100510.06
2023-04-18T22:03:12.428Z,100510.69
2023-04-18T22:05:40.283Z,100502.16
2023-04-18T22:08:07.605Z,100504.47
2023-04-18T22:10:35.437Z,100503.62
2023-04-18T22:13:05.472Z,100508.72
2023-04-18T22:15:33.086Z,100509.03
2023-04-18T22:18:00.250Z,100506.16
2023-04-18T22:20:27.262Z,100506.19
2023-04-18T22:22:54.804Z,100510.38
2023-04-18T22:25:21.772Z,100510.47
2023-04-18T22:27:48.732Z,100510.47
2023-04-18T22:30:15.973Z,100520.94
2023-04-18T22:32:42.964Z,100516.06
2023-04-18T22:35:10.204Z,100516.56
2023-04-18T22:37:37.207Z,100512.03
2023-04-18T22:40:07.488Z,100505.00
2023-04-18T22:42:36.148Z,100505.25
2023-04-18T22:45:04.371Z,100507.84
2023-04-18T22:47:31.402Z,100506.69
2023-04-18T22:49:58.319Z,100514.69
2023-04-18T22:52:25.746Z,100519.16
2023-04-18T22:54:53.333Z,100519.56
2023-04-18T22:57:20.251Z,100524.63
2023-04-18T22:59:47.245Z,100522.72
2023-04-18T23:02:14.407Z,100521.09
2023-04-18T23:04:42.512Z,100525.28
2023-04-18T23:07:09.602Z,100524.16
2023-04-18T23:09:36.679Z,100527.81
2023-04-18T23:12:03.834Z,100533.50
2023-04-18T23:14:30.958Z,100527.66
2023-04-18T23:16:58.045Z,100535.87
2023-04-18T23:19:25.014Z,100529.78
2023-04-18T23:21:52.008Z,100520.69
2023-04-18T23:24:18.971Z,100525.31
2023-04-18T23:26:46.348Z,100532.22
2023-04-18T23:29:13.379Z,100526.31
2023-04-18T23:31:41.173Z,100524.50
2023-04-18T23:34:08.161Z,100514.66
2023-04-18T23:36:35.152Z,100511.00
2023-04-18T23:39:02.403Z,100508.28
2023-04-18T23:41:29.425Z,100504.03
2023-04-18T23:43:56.377Z,100500.44
2023-04-18T23:46:23.449Z,100499.16
2023-04-18T23:48:50.524Z,100495.19
2023-04-18T23:51:17.424Z,100493.06
2023-04-18T23:53:44.385Z,100497.47
2023-04-18T23:56:11.231Z,100492.78
2023-04-18T23:58:38.197Z,100490.84
